sensor_id;sensor_type;location;lat;lon;timestamp;temperature;humidity
52963;DHT22;38827;53.024;6.596;2023-03-23T00:01:50;11.40;89.20
52963;DHT22;38827;53.024;6.596;2023-03-23T00:04:16;11.40;89.10
52963;DHT22;38827;53.024;6.596;2023-03-23T00:06:44;11.40;89.00
52963;DHT22;38827;53.024;6.596;2023-03-23T00:09:17;11.40;88.90
52963;DHT22;38827;53.024;6.596;2023-03-23T00:11:53;11.50;88.80
52963;DHT22;38827;53.024;6.596;2023-03-23T00:14:46;11.50;88.70
52963;DHT22;38827;53.024;6.596;2023-03-23T00:17:20;11.50;88.50
52963;DHT22;38827;53.024;6.596;2023-03-23T00:20:37;11.50;88.30
52963;DHT22;38827;53.024;6.596;2023-03-23T00:27:11;11.50;87.90
52963;DHT22;38827;53.024;6.596;2023-03-23T00:30:14;11.50;87.60
52963;DHT22;38827;53.024;6.596;2023-03-23T00:33:23;11.60;87.50
52963;DHT22;38827;53.024;6.596;2023-03-23T00:36:18;11.60;87.30
52963;DHT22;38827;53.024;6.596;2023-03-23T00:39:19;11.60;87.50
52963;DHT22;38827;53.024;6.596;2023-03-23T00:48:36;11.60;87.00
52963;DHT22;38827;53.024;6.596;2023-03-23T00:51:57;11.60;86.90
52963;DHT22;38827;53.024;6.596;2023-03-23T00:54:28;11.60;86.70
52963;DHT22;38827;53.024;6.596;2023-03-23T00:57:29;11.60;86.90
52963;DHT22;38827;53.024;6.596;2023-03-23T01:00:02;11.60;86.90
52963;DHT22;38827;53.024;6.596;2023-03-23T01:06:30;11.70;86.60
52963;DHT22;38827;53.024;6.596;2023-03-23T01:13:17;11.70;86.20
52963;DHT22;38827;53.024;6.596;2023-03-23T01:16:15;11.60;86.50
52963;DHT22;38827;53.024;6.596;2023-03-23T01:22:35;11.70;86.30
52963;DHT22;38827;53.024;6.596;2023-03-23T01:25:24;11.60;86.20
52963;DHT22;38827;53.024;6.596;2023-03-23T01:28:22;11.70;85.80
52963;DHT22;38827;53.024;6.596;2023-03-23T01:31:40;11.60;85.90
52963;DHT22;38827;53.024;6.596;2023-03-23T01:34:39;11.60;85.40
52963;DHT22;38827;53.024;6.596;2023-03-23T01:37:23;11.60;85.50
52963;DHT22;38827;53.024;6.596;2023-03-23T01:40:20;11.60;85.50
52963;DHT22;38827;53.024;6.596;2023-03-23T01:47:17;11.60;84.60
52963;DHT22;38827;53.024;6.596;2023-03-23T01:53:49;11.60;84.40
52963;DHT22;38827;53.024;6.596;2023-03-23T01:59:23;11.60;83.50
52963;DHT22;38827;53.024;6.596;2023-03-23T02:12:01;11.70;83.80
52963;DHT22;38827;53.024;6.596;2023-03-23T02:14:32;11.70;83.60
52963;DHT22;38827;53.024;6.596;2023-03-23T02:17:07;11.70;83.40
52963;DHT22;38827;53.024;6.596;2023-03-23T02:31:41;11.70;82.20
52963;DHT22;38827;53.024;6.596;2023-03-23T02:37:48;11.70;81.90
52963;DHT22;38827;53.024;6.596;2023-03-23T02:40:24;11.60;82.10
52963;DHT22;38827;53.024;6.596;2023-03-23T02:43:12;11.60;82.20
52963;DHT22;38827;53.024;6.596;2023-03-23T02:45:50;11.60;82.00
52963;DHT22;38827;53.024;6.596;2023-03-23T02:48:22;11.60;82.20
52963;DHT22;38827;53.024;6.596;2023-03-23T02:50:57;11.60;82.00
52963;DHT22;38827;53.024;6.596;2023-03-23T02:53:33;11.60;82.00
52963;DHT22;38827;53.024;6.596;2023-03-23T02:56:00;11.60;81.90
52963;DHT22;38827;53.024;6.596;2023-03-23T02:58:33;11.60;81.90
52963;DHT22;38827;53.024;6.596;2023-03-23T03:01:10;11.60;81.80
52963;DHT22;38827;53.024;6.596;2023-03-23T03:03:39;11.60;81.90
52963;DHT22;38827;53.024;6.596;2023-03-23T03:09:01;11.60;81.40
52963;DHT22;38827;53.024;6.596;2023-03-23T03:11:33;11.60;81.70
52963;DHT22;38827;53.024;6.596;2023-03-23T03:14:09;11.60;81.60
52963;DHT22;38827;53.024;6.596;2023-03-23T03:16:49;11.60;81.60
52963;DHT22;38827;53.024;6.596;2023-03-23T03:19:46;11.60;81.40
52963;DHT22;38827;53.024;6.596;2023-03-23T03:22:14;11.60;81.00
52963;DHT22;38827;53.024;6.596;2023-03-23T03:24:50;11.60;81.40
52963;DHT22;38827;53.024;6.596;2023-03-23T03:27:28;11.60;81.20
52963;DHT22;38827;53.024;6.596;2023-03-23T03:30:18;11.60;81.10
52963;DHT22;38827;53.024;6.596;2023-03-23T03:32:55;11.60;80.80
52963;DHT22;38827;53.024;6.596;2023-03-23T03:35:29;11.60;81.00
52963;DHT22;38827;53.024;6.596;2023-03-23T03:38:09;11.60;81.00
52963;DHT22;38827;53.024;6.596;2023-03-23T03:40:50;11.60;80.80
52963;DHT22;38827;53.024;6.596;2023-03-23T03:43:27;11.60;80.70
52963;DHT22;38827;53.024;6.596;2023-03-23T03:46:24;11.60;81.00
52963;DHT22;38827;53.024;6.596;2023-03-23T03:55:34;11.60;81.80
52963;DHT22;38827;53.024;6.596;2023-03-23T03:58:04;11.50;81.90
52963;DHT22;38827;53.024;6.596;2023-03-23T04:03:56;11.50;82.50
52963;DHT22;38827;53.024;6.596;2023-03-23T04:06:27;11.50;82.90
52963;DHT22;38827;53.024;6.596;2023-03-23T04:09:13;11.40;83.00
52963;DHT22;38827;53.024;6.596;2023-03-23T04:11:53;11.40;82.90
52963;DHT22;38827;53.024;6.596;2023-03-23T04:14:33;11.40;83.10
52963;DHT22;38827;53.024;6.596;2023-03-23T04:17:01;11.40;82.90
52963;DHT22;38827;53.024;6.596;2023-03-23T04:19:30;11.40;82.90
52963;DHT22;38827;53.024;6.596;2023-03-23T04:22:10;11.40;82.80
52963;DHT22;38827;53.024;6.596;2023-03-23T04:24:53;11.40;82.90
52963;DHT22;38827;53.024;6.596;2023-03-23T04:30:31;11.50;82.90
52963;DHT22;38827;53.024;6.596;2023-03-23T04:33:11;11.50;83.20
52963;DHT22;38827;53.024;6.596;2023-03-23T04:35:59;11.50;83.20
52963;DHT22;38827;53.024;6.596;2023-03-23T04:38:34;11.50;83.30
52963;DHT22;38827;53.024;6.596;2023-03-23T04:41:13;11.50;83.40
52963;DHT22;38827;53.024;6.596;2023-03-23T04:43:41;11.40;83.70
52963;DHT22;38827;53.024;6.596;2023-03-23T04:46:09;11.40;82.90
52963;DHT22;38827;53.024;6.596;2023-03-23T04:48:35;11.20;83.00
52963;DHT22;38827;53.024;6.596;2023-03-23T04:51:03;10.90;84.90
52963;DHT22;38827;53.024;6.596;2023-03-23T04:53:30;10.60;86.00
52963;DHT22;38827;53.024;6.596;2023-03-23T04:56:01;10.40;87.20
52963;DHT22;38827;53.024;6.596;2023-03-23T04:58:30;10.30;88.00
52963;DHT22;38827;53.024;6.596;2023-03-23T05:01:02;10.30;88.20
52963;DHT22;38827;53.024;6.596;2023-03-23T05:03:31;10.30;88.60
52963;DHT22;38827;53.024;6.596;2023-03-23T05:05:57;10.20;88.60
52963;DHT22;38827;53.024;6.596;2023-03-23T05:08:32;10.20;88.80
52963;DHT22;38827;53.024;6.596;2023-03-23T05:10:59;10.30;88.70
52963;DHT22;38827;53.024;6.596;2023-03-23T05:13:27;10.20;88.80
52963;DHT22;38827;53.024;6.596;2023-03-23T05:15:54;10.30;88.60
52963;DHT22;38827;53.024;6.596;2023-03-23T05:18:20;10.20;88.50
52963;DHT22;38827;53.024;6.596;2023-03-23T05:20:46;10.20;88.50
52963;DHT22;38827;53.024;6.596;2023-03-23T05:23:12;10.20;88.40
52963;DHT22;38827;53.024;6.596;2023-03-23T05:25:38;10.20;88.40
52963;DHT22;38827;53.024;6.596;2023-03-23T05:28:09;10.20;88.20
52963;DHT22;38827;53.024;6.596;2023-03-23T05:30:36;10.20;88.20
52963;DHT22;38827;53.024;6.596;2023-03-23T05:33:02;10.10;88.20
52963;DHT22;38827;53.024;6.596;2023-03-23T05:35:29;10.10;88.00
52963;DHT22;38827;53.024;6.596;2023-03-23T05:37:55;10.10;88.20
52963;DHT22;38827;53.024;6.596;2023-03-23T05:40:22;10.00;88.40
52963;DHT22;38827;53.024;6.596;2023-03-23T05:42:48;10.10;88.30
52963;DHT22;38827;53.024;6.596;2023-03-23T05:45:17;10.10;88.40
52963;DHT22;38827;53.024;6.596;2023-03-23T05:47:43;10.10;88.50
52963;DHT22;38827;53.024;6.596;2023-03-23T05:50:10;10.10;88.40
52963;DHT22;38827;53.024;6.596;2023-03-23T05:52:36;10.10;88.40
52963;DHT22;38827;53.024;6.596;2023-03-23T05:55:04;10.10;88.50
52963;DHT22;38827;53.024;6.596;2023-03-23T05:57:36;10.10;88.70
52963;DHT22;38827;53.024;6.596;2023-03-23T06:00:08;10.20;88.50
52963;DHT22;38827;53.024;6.596;2023-03-23T06:02:40;10.20;88.50
52963;DHT22;38827;53.024;6.596;2023-03-23T06:05:09;10.20;88.30
52963;DHT22;38827;53.024;6.596;2023-03-23T06:07:38;10.30;88.10
52963;DHT22;38827;53.024;6.596;2023-03-23T06:10:05;10.30;88.00
52963;DHT22;38827;53.024;6.596;2023-03-23T06:12:32;10.30;87.80
52963;DHT22;38827;53.024;6.596;2023-03-23T06:14:59;10.40;87.50
52963;DHT22;38827;53.024;6.596;2023-03-23T06:17:25;10.40;87.40
52963;DHT22;38827;53.024;6.596;2023-03-23T06:19:51;10.40;87.30
52963;DHT22;38827;53.024;6.596;2023-03-23T06:22:17;10.50;87.10
52963;DHT22;38827;53.024;6.596;2023-03-23T06:24:44;10.50;86.80
52963;DHT22;38827;53.024;6.596;2023-03-23T06:27:10;10.50;86.60
52963;DHT22;38827;53.024;6.596;2023-03-23T06:29:36;10.60;86.40
52963;DHT22;38827;53.024;6.596;2023-03-23T06:32:03;10.60;86.10
52963;DHT22;38827;53.024;6.596;2023-03-23T06:34:29;10.70;85.90
52963;DHT22;38827;53.024;6.596;2023-03-23T06:36:56;10.70;85.50
52963;DHT22;38827;53.024;6.596;2023-03-23T06:39:22;10.70;85.90
52963;DHT22;38827;53.024;6.596;2023-03-23T06:41:48;10.70;85.70
52963;DHT22;38827;53.024;6.596;2023-03-23T06:44:14;10.70;85.30
52963;DHT22;38827;53.024;6.596;2023-03-23T06:46:41;10.70;85.20
52963;DHT22;38827;53.024;6.596;2023-03-23T06:49:07;10.70;85.10
52963;DHT22;38827;53.024;6.596;2023-03-23T06:51:33;10.80;85.00
52963;DHT22;38827;53.024;6.596;2023-03-23T06:53:58;10.80;84.90
52963;DHT22;38827;53.024;6.596;2023-03-23T06:56:24;10.90;84.80
52963;DHT22;38827;53.024;6.596;2023-03-23T06:58:53;10.90;84.50
52963;DHT22;38827;53.024;6.596;2023-03-23T07:01:19;10.90;84.20
52963;DHT22;38827;53.024;6.596;2023-03-23T07:03:45;11.00;83.90
52963;DHT22;38827;53.024;6.596;2023-03-23T07:06:15;11.00;83.80
52963;DHT22;38827;53.024;6.596;2023-03-23T07:08:43;11.00;83.50
52963;DHT22;38827;53.024;6.596;2023-03-23T07:11:08;11.10;83.40
52963;DHT22;38827;53.024;6.596;2023-03-23T07:13:36;11.10;83.30
52963;DHT22;38827;53.024;6.596;2023-03-23T07:16:05;11.10;82.30
52963;DHT22;38827;53.024;6.596;2023-03-23T07:18:32;11.10;83.40
52963;DHT22;38827;53.024;6.596;2023-03-23T07:20:58;11.20;83.00
52963;DHT22;38827;53.024;6.596;2023-03-23T07:23:24;11.20;82.70
52963;DHT22;38827;53.024;6.596;2023-03-23T07:25:50;11.30;82.60
52963;DHT22;38827;53.024;6.596;2023-03-23T07:28:16;11.30;82.50
52963;DHT22;38827;53.024;6.596;2023-03-23T07:30:47;11.40;82.10
52963;DHT22;38827;53.024;6.596;2023-03-23T07:33:13;11.50;81.90
52963;DHT22;38827;53.024;6.596;2023-03-23T07:35:39;11.60;81.80
52963;DHT22;38827;53.024;6.596;2023-03-23T07:38:07;11.90;81.10
52963;DHT22;38827;53.024;6.596;2023-03-23T07:40:34;12.30;79.60
52963;DHT22;38827;53.024;6.596;2023-03-23T07:43:35;12.30;78.60
52963;DHT22;38827;53.024;6.596;2023-03-23T07:46:33;12.30;77.90
52963;DHT22;38827;53.024;6.596;2023-03-23T07:49:07;12.40;76.60
52963;DHT22;38827;53.024;6.596;2023-03-23T07:51:39;12.40;77.40
52963;DHT22;38827;53.024;6.596;2023-03-23T07:54:26;12.40;77.30
52963;DHT22;38827;53.024;6.596;2023-03-23T07:56:58;12.40;77.00
52963;DHT22;38827;53.024;6.596;2023-03-23T08:02:26;12.60;76.30
52963;DHT22;38827;53.024;6.596;2023-03-23T08:05:03;12.50;76.10
52963;DHT22;38827;53.024;6.596;2023-03-23T08:10:54;12.50;74.90
52963;DHT22;38827;53.024;6.596;2023-03-23T08:17:23;12.50;74.90
52963;DHT22;38827;53.024;6.596;2023-03-23T08:20:06;12.40;75.60
52963;DHT22;38827;53.024;6.596;2023-03-23T08:23:01;12.40;74.60
52963;DHT22;38827;53.024;6.596;2023-03-23T08:25:32;12.40;75.30
52963;DHT22;38827;53.024;6.596;2023-03-23T08:28:21;12.40;75.80
52963;DHT22;38827;53.024;6.596;2023-03-23T08:30:50;12.40;75.20
52963;DHT22;38827;53.024;6.596;2023-03-23T08:33:40;12.50;75.60
52963;DHT22;38827;53.024;6.596;2023-03-23T08:36:23;12.50;74.40
52963;DHT22;38827;53.024;6.596;2023-03-23T08:38:54;12.50;74.90
52963;DHT22;38827;53.024;6.596;2023-03-23T08:41:25;12.50;75.10
52963;DHT22;38827;53.024;6.596;2023-03-23T08:44:03;12.50;75.10
52963;DHT22;38827;53.024;6.596;2023-03-23T08:46:45;12.50;74.80
52963;DHT22;38827;53.024;6.596;2023-03-23T08:49:23;12.50;74.60
52963;DHT22;38827;53.024;6.596;2023-03-23T08:51:55;12.60;74.50
52963;DHT22;38827;53.024;6.596;2023-03-23T08:54:38;13.10;74.10
52963;DHT22;38827;53.024;6.596;2023-03-23T08:57:04;14.20;72.00
52963;DHT22;38827;53.024;6.596;2023-03-23T08:59:37;14.90;69.60
52963;DHT22;38827;53.024;6.596;2023-03-23T09:02:09;15.00;67.50
52963;DHT22;38827;53.024;6.596;2023-03-23T09:05:58;15.00;67.30
52963;DHT22;38827;53.024;6.596;2023-03-23T09:08:59;14.90;65.50
52963;DHT22;38827;53.024;6.596;2023-03-23T09:12:28;15.00;66.70
52963;DHT22;38827;53.024;6.596;2023-03-23T09:18:14;15.10;67.00
52963;DHT22;38827;53.024;6.596;2023-03-23T09:20:55;15.50;65.70
52963;DHT22;38827;53.024;6.596;2023-03-23T09:31:28;15.20;62.90
52963;DHT22;38827;53.024;6.596;2023-03-23T09:54:29;14.90;64.00
52963;DHT22;38827;53.024;6.596;2023-03-23T10:05:56;17.90;54.30
52963;DHT22;38827;53.024;6.596;2023-03-23T10:08:29;18.70;55.00
52963;DHT22;38827;53.024;6.596;2023-03-23T10:11:15;19.40;53.90
52963;DHT22;38827;53.024;6.596;2023-03-23T10:16:20;20.10;49.90
52963;DHT22;38827;53.024;6.596;2023-03-23T10:21:28;19.20;48.70
52963;DHT22;38827;53.024;6.596;2023-03-23T10:24:01;18.80;50.60
52963;DHT22;38827;53.024;6.596;2023-03-23T10:29:26;18.40;51.00
52963;DHT22;38827;53.024;6.596;2023-03-23T10:32:00;18.30;50.90
52963;DHT22;38827;53.024;6.596;2023-03-23T10:34:55;17.70;51.60
52963;DHT22;38827;53.024;6.596;2023-03-23T10:37:30;17.10;51.10
52963;DHT22;38827;53.024;6.596;2023-03-23T10:39:58;17.20;52.80
52963;DHT22;38827;53.024;6.596;2023-03-23T10:44:52;18.30;51.50
52963;DHT22;38827;53.024;6.596;2023-03-23T10:47:21;18.40;51.00
52963;DHT22;38827;53.024;6.596;2023-03-23T10:49:56;18.30;50.70
52963;DHT22;38827;53.024;6.596;2023-03-23T10:52:36;18.10;51.00
52963;DHT22;38827;53.024;6.596;2023-03-23T10:55:10;18.30;49.80
52963;DHT22;38827;53.024;6.596;2023-03-23T10:57:37;18.00;50.60
52963;DHT22;38827;53.024;6.596;2023-03-23T11:00:18;18.40;50.80
52963;DHT22;38827;53.024;6.596;2023-03-23T11:02:48;19.50;48.50
52963;DHT22;38827;53.024;6.596;2023-03-23T11:05:26;20.30;46.70
52963;DHT22;38827;53.024;6.596;2023-03-23T11:07:57;21.20;46.30
52963;DHT22;38827;53.024;6.596;2023-03-23T11:10:39;22.10;44.10
52963;DHT22;38827;53.024;6.596;2023-03-23T11:13:14;22.80;42.30
52963;DHT22;38827;53.024;6.596;2023-03-23T11:15:47;22.30;42.70
52963;DHT22;38827;53.024;6.596;2023-03-23T11:18:48;21.70;42.60
52963;DHT22;38827;53.024;6.596;2023-03-23T11:21:22;20.70;42.70
52963;DHT22;38827;53.024;6.596;2023-03-23T11:23:59;20.70;44.60
52963;DHT22;38827;53.024;6.596;2023-03-23T11:26:40;21.10;41.70
52963;DHT22;38827;53.024;6.596;2023-03-23T11:29:14;21.50;42.40
52963;DHT22;38827;53.024;6.596;2023-03-23T11:31:47;21.90;42.80
52963;DHT22;38827;53.024;6.596;2023-03-23T11:34:32;21.80;41.50
52963;DHT22;38827;53.024;6.596;2023-03-23T11:40:22;22.50;39.80
52963;DHT22;38827;53.024;6.596;2023-03-23T11:43:13;23.10;41.20
52963;DHT22;38827;53.024;6.596;2023-03-23T11:46:08;23.50;38.40
52963;DHT22;38827;53.024;6.596;2023-03-23T11:48:49;23.50;38.00
52963;DHT22;38827;53.024;6.596;2023-03-23T11:55:26;21.40;39.10
52963;DHT22;38827;53.024;6.596;2023-03-23T11:58:22;21.00;42.10
52963;DHT22;38827;53.024;6.596;2023-03-23T12:04:23;21.80;41.60
52963;DHT22;38827;53.024;6.596;2023-03-23T12:10:03;22.70;38.70
52963;DHT22;38827;53.024;6.596;2023-03-23T12:13:06;22.50;38.60
52963;DHT22;38827;53.024;6.596;2023-03-23T12:18:55;21.90;38.10
52963;DHT22;38827;53.024;6.596;2023-03-23T12:21:43;21.50;38.60
52963;DHT22;38827;53.024;6.596;2023-03-23T12:27:51;21.20;39.50
52963;DHT22;38827;53.024;6.596;2023-03-23T12:30:53;20.70;40.70
52963;DHT22;38827;53.024;6.596;2023-03-23T12:49:24;22.80;37.70
52963;DHT22;38827;53.024;6.596;2023-03-23T12:52:16;21.30;40.00
52963;DHT22;38827;53.024;6.596;2023-03-23T12:55:04;20.00;41.00
52963;DHT22;38827;53.024;6.596;2023-03-23T13:06:39;17.10;46.50
52963;DHT22;38827;53.024;6.596;2023-03-23T13:09:29;16.90;46.50
52963;DHT22;38827;53.024;6.596;2023-03-23T13:12:11;16.90;47.40
52963;DHT22;38827;53.024;6.596;2023-03-23T13:15:00;17.10;46.80
52963;DHT22;38827;53.024;6.596;2023-03-23T13:23:33;16.70;48.20
52963;DHT22;38827;53.024;6.596;2023-03-23T13:26:21;16.40;48.80
52963;DHT22;38827;53.024;6.596;2023-03-23T13:29:04;16.40;49.30
52963;DHT22;38827;53.024;6.596;2023-03-23T13:31:42;16.30;49.10
52963;DHT22;38827;53.024;6.596;2023-03-23T13:39:35;15.90;50.90
52963;DHT22;38827;53.024;6.596;2023-03-23T13:42:36;15.80;50.90
52963;DHT22;38827;53.024;6.596;2023-03-23T13:45:34;16.00;50.70
52963;DHT22;38827;53.024;6.596;2023-03-23T13:48:24;16.30;49.90
52963;DHT22;38827;53.024;6.596;2023-03-23T13:50:56;16.40;49.10
52963;DHT22;38827;53.024;6.596;2023-03-23T13:53:45;16.30;50.00
52963;DHT22;38827;53.024;6.596;2023-03-23T13:56:32;16.80;49.90
52963;DHT22;38827;53.024;6.596;2023-03-23T13:59:06;18.20;47.30
52963;DHT22;38827;53.024;6.596;2023-03-23T14:01:39;18.60;46.50
52963;DHT22;38827;53.024;6.596;2023-03-23T14:04:16;18.50;45.90
52963;DHT22;38827;53.024;6.596;2023-03-23T14:06:49;18.10;45.90
52963;DHT22;38827;53.024;6.596;2023-03-23T14:09:41;17.70;47.20
52963;DHT22;38827;53.024;6.596;2023-03-23T14:12:27;17.50;47.30
52963;DHT22;38827;53.024;6.596;2023-03-23T14:15:00;17.20;47.70
52963;DHT22;38827;53.024;6.596;2023-03-23T14:17:34;17.10;48.30
52963;DHT22;38827;53.024;6.596;2023-03-23T14:20:05;17.60;47.70
52963;DHT22;38827;53.024;6.596;2023-03-23T14:22:36;17.60;46.80
52963;DHT22;38827;53.024;6.596;2023-03-23T14:25:11;17.30;47.40
52963;DHT22;38827;53.024;6.596;2023-03-23T14:27:38;17.30;47.30
52963;DHT22;38827;53.024;6.596;2023-03-23T14:30:07;17.00;48.10
52963;DHT22;38827;53.024;6.596;2023-03-23T14:32:34;16.70;48.90
52963;DHT22;38827;53.024;6.596;2023-03-23T14:35:06;16.30;49.80
52963;DHT22;38827;53.024;6.596;2023-03-23T14:37:35;16.10;51.00
52963;DHT22;38827;53.024;6.596;2023-03-23T14:40:02;16.70;50.60
52963;DHT22;38827;53.024;6.596;2023-03-23T14:42:33;17.80;49.30
52963;DHT22;38827;53.024;6.596;2023-03-23T14:45:00;18.40;48.00
52963;DHT22;38827;53.024;6.596;2023-03-23T14:47:43;18.70;46.80
52963;DHT22;38827;53.024;6.596;2023-03-23T14:50:41;19.20;45.20
52963;DHT22;38827;53.024;6.596;2023-03-23T14:55:51;19.40;44.20
52963;DHT22;38827;53.024;6.596;2023-03-23T14:58:20;19.80;44.50
52963;DHT22;38827;53.024;6.596;2023-03-23T15:01:07;20.00;43.70
52963;DHT22;38827;53.024;6.596;2023-03-23T15:04:00;20.30;42.50
52963;DHT22;38827;53.024;6.596;2023-03-23T15:06:30;20.40;42.00
52963;DHT22;38827;53.024;6.596;2023-03-23T15:09:03;20.20;42.60
52963;DHT22;38827;53.024;6.596;2023-03-23T15:11:35;19.60;43.80
52963;DHT22;38827;53.024;6.596;2023-03-23T15:17:38;18.90;45.00
52963;DHT22;38827;53.024;6.596;2023-03-23T15:23:04;18.90;44.70
52963;DHT22;38827;53.024;6.596;2023-03-23T15:25:32;19.20;44.50
52963;DHT22;38827;53.024;6.596;2023-03-23T15:28:14;19.60;43.60
52963;DHT22;38827;53.024;6.596;2023-03-23T15:31:00;19.50;43.40
52963;DHT22;38827;53.024;6.596;2023-03-23T15:33:26;19.60;43.00
52963;DHT22;38827;53.024;6.596;2023-03-23T15:35:55;19.60;43.30
52963;DHT22;38827;53.024;6.596;2023-03-23T15:38:39;19.60;42.80
52963;DHT22;38827;53.024;6.596;2023-03-23T15:41:24;19.60;42.60
52963;DHT22;38827;53.024;6.596;2023-03-23T15:43:56;19.50;42.60
52963;DHT22;38827;53.024;6.596;2023-03-23T15:50:02;19.00;42.50
52963;DHT22;38827;53.024;6.596;2023-03-23T15:52:28;19.00;42.80
52963;DHT22;38827;53.024;6.596;2023-03-23T15:54:54;19.00;43.20
52963;DHT22;38827;53.024;6.596;2023-03-23T15:57:20;19.00;43.30
52963;DHT22;38827;53.024;6.596;2023-03-23T15:59:46;18.60;43.40
52963;DHT22;38827;53.024;6.596;2023-03-23T16:02:22;18.20;44.00
52963;DHT22;38827;53.024;6.596;2023-03-23T16:04:50;17.80;44.80
52963;DHT22;38827;53.024;6.596;2023-03-23T16:07:20;17.50;45.20
52963;DHT22;38827;53.024;6.596;2023-03-23T16:09:46;17.30;45.50
52963;DHT22;38827;53.024;6.596;2023-03-23T16:12:21;17.00;46.00
52963;DHT22;38827;53.024;6.596;2023-03-23T16:14:50;16.60;46.60
52963;DHT22;38827;53.024;6.596;2023-03-23T16:17:29;16.30;47.20
52963;DHT22;38827;53.024;6.596;2023-03-23T16:20:00;16.10;47.80
52963;DHT22;38827;53.024;6.596;2023-03-23T16:22:30;15.90;48.50
52963;DHT22;38827;53.024;6.596;2023-03-23T16:25:03;15.80;48.50
52963;DHT22;38827;53.024;6.596;2023-03-23T16:27:39;15.80;48.90
52963;DHT22;38827;53.024;6.596;2023-03-23T16:30:17;15.80;49.00
52963;DHT22;38827;53.024;6.596;2023-03-23T16:33:02;15.80;49.30
52963;DHT22;38827;53.024;6.596;2023-03-23T16:35:44;15.70;49.60
52963;DHT22;38827;53.024;6.596;2023-03-23T16:38:13;15.60;49.80
52963;DHT22;38827;53.024;6.596;2023-03-23T16:40:42;15.40;50.30
52963;DHT22;38827;53.024;6.596;2023-03-23T16:43:08;15.20;50.60
52963;DHT22;38827;53.024;6.596;2023-03-23T16:45:39;15.10;51.90
52963;DHT22;38827;53.024;6.596;2023-03-23T16:48:09;14.90;51.70
52963;DHT22;38827;53.024;6.596;2023-03-23T16:50:41;14.90;52.40
52963;DHT22;38827;53.024;6.596;2023-03-23T16:53:13;14.80;52.60
52963;DHT22;38827;53.024;6.596;2023-03-23T16:55:58;14.80;52.90
52963;DHT22;38827;53.024;6.596;2023-03-23T16:58:39;14.70;53.30
52963;DHT22;38827;53.024;6.596;2023-03-23T17:01:16;14.60;53.80
52963;DHT22;38827;53.024;6.596;2023-03-23T17:03:50;14.50;54.00
52963;DHT22;38827;53.024;6.596;2023-03-23T17:06:24;14.40;54.10
52963;DHT22;38827;53.024;6.596;2023-03-23T17:08:53;14.30;54.50
52963;DHT22;38827;53.024;6.596;2023-03-23T17:11:22;14.20;54.70
52963;DHT22;38827;53.024;6.596;2023-03-23T17:14:02;14.20;55.10
52963;DHT22;38827;53.024;6.596;2023-03-23T17:16:31;14.10;55.60
52963;DHT22;38827;53.024;6.596;2023-03-23T17:19:21;14.10;55.80
52963;DHT22;38827;53.024;6.596;2023-03-23T17:21:48;14.10;56.10
52963;DHT22;38827;53.024;6.596;2023-03-23T17:24:19;14.00;56.10
52963;DHT22;38827;53.024;6.596;2023-03-23T17:26:45;14.00;56.40
52963;DHT22;38827;53.024;6.596;2023-03-23T17:29:13;13.90;56.60
52963;DHT22;38827;53.024;6.596;2023-03-23T17:31:41;13.90;56.80
52963;DHT22;38827;53.024;6.596;2023-03-23T17:34:10;13.90;57.20
52963;DHT22;38827;53.024;6.596;2023-03-23T17:39:26;13.80;57.70
52963;DHT22;38827;53.024;6.596;2023-03-23T17:41:54;13.80;58.00
52963;DHT22;38827;53.024;6.596;2023-03-23T17:44:26;13.80;58.20
52963;DHT22;38827;53.024;6.596;2023-03-23T17:46:52;13.70;58.50
52963;DHT22;38827;53.024;6.596;2023-03-23T17:49:22;13.70;58.60
52963;DHT22;38827;53.024;6.596;2023-03-23T17:51:51;13.70;58.90
52963;DHT22;38827;53.024;6.596;2023-03-23T17:54:20;13.70;59.30
52963;DHT22;38827;53.024;6.596;2023-03-23T17:56:49;13.60;59.60
52963;DHT22;38827;53.024;6.596;2023-03-23T17:59:17;13.50;59.80
52963;DHT22;38827;53.024;6.596;2023-03-23T18:01:46;13.50;60.20
52963;DHT22;38827;53.024;6.596;2023-03-23T18:04:13;13.50;60.60
52963;DHT22;38827;53.024;6.596;2023-03-23T18:06:42;13.40;61.80
52963;DHT22;38827;53.024;6.596;2023-03-23T18:09:08;13.40;61.20
52963;DHT22;38827;53.024;6.596;2023-03-23T18:11:39;13.30;62.00
52963;DHT22;38827;53.024;6.596;2023-03-23T18:14:06;13.30;62.70
52963;DHT22;38827;53.024;6.596;2023-03-23T18:16:37;13.20;63.10
52963;DHT22;38827;53.024;6.596;2023-03-23T18:19:06;13.20;63.60
52963;DHT22;38827;53.024;6.596;2023-03-23T18:21:59;13.10;64.00
52963;DHT22;38827;53.024;6.596;2023-03-23T18:24:26;13.10;64.80
52963;DHT22;38827;53.024;6.596;2023-03-23T18:27:01;13.00;65.10
52963;DHT22;38827;53.024;6.596;2023-03-23T18:29:34;13.00;65.40
52963;DHT22;38827;53.024;6.596;2023-03-23T18:32:17;12.90;65.90
52963;DHT22;38827;53.024;6.596;2023-03-23T18:34:50;12.90;66.00
52963;DHT22;38827;53.024;6.596;2023-03-23T18:37:50;12.80;66.50
52963;DHT22;38827;53.024;6.596;2023-03-23T18:40:29;12.80;66.90
52963;DHT22;38827;53.024;6.596;2023-03-23T18:43:03;12.70;67.10
52963;DHT22;38827;53.024;6.596;2023-03-23T18:45:29;12.70;67.50
52963;DHT22;38827;53.024;6.596;2023-03-23T18:48:05;12.60;67.70
52963;DHT22;38827;53.024;6.596;2023-03-23T18:51:09;12.60;68.00
52963;DHT22;38827;53.024;6.596;2023-03-23T18:53:39;12.60;68.60
52963;DHT22;38827;53.024;6.596;2023-03-23T18:56:15;12.50;68.50
52963;DHT22;38827;53.024;6.596;2023-03-23T18:58:47;12.50;68.80
52963;DHT22;38827;53.024;6.596;2023-03-23T19:03:52;12.40;68.70
52963;DHT22;38827;53.024;6.596;2023-03-23T19:13:39;12.40;69.70
52963;DHT22;38827;53.024;6.596;2023-03-23T19:16:08;12.30;69.90
52963;DHT22;38827;53.024;6.596;2023-03-23T19:18:43;12.40;70.20
52963;DHT22;38827;53.024;6.596;2023-03-23T19:21:15;12.30;70.40
52963;DHT22;38827;53.024;6.596;2023-03-23T19:23:43;12.40;70.70
52963;DHT22;38827;53.024;6.596;2023-03-23T19:26:25;12.40;70.90
52963;DHT22;38827;53.024;6.596;2023-03-23T19:29:06;12.40;71.00
52963;DHT22;38827;53.024;6.596;2023-03-23T19:52:27;12.30;73.60
52963;DHT22;38827;53.024;6.596;2023-03-23T19:55:05;12.30;73.90
52963;DHT22;38827;53.024;6.596;2023-03-23T19:57:51;12.30;74.20
52963;DHT22;38827;53.024;6.596;2023-03-23T20:00:41;12.20;74.40
52963;DHT22;38827;53.024;6.596;2023-03-23T20:03:32;12.20;74.70
52963;DHT22;38827;53.024;6.596;2023-03-23T20:06:20;12.20;75.00
52963;DHT22;38827;53.024;6.596;2023-03-23T20:11:40;12.20;75.50
52963;DHT22;38827;53.024;6.596;2023-03-23T20:14:08;12.20;75.60
52963;DHT22;38827;53.024;6.596;2023-03-23T20:16:46;12.20;75.90
52963;DHT22;38827;53.024;6.596;2023-03-23T20:19:36;12.20;76.00
52963;DHT22;38827;53.024;6.596;2023-03-23T20:22:09;12.20;75.90
52963;DHT22;38827;53.024;6.596;2023-03-23T20:24:50;12.20;76.10
52963;DHT22;38827;53.024;6.596;2023-03-23T20:27:29;12.20;76.00